createdAt,value
2023-10-16T00:01:33.250Z,90.20
2023-10-16T00:04:00.483Z,90.10
2023-10-16T00:06:27.715Z,90.10
2023-10-16T00:08:55.041Z,90.20
2023-10-16T00:11:27.122Z,90.30
2023-10-16T00:13:58.103Z,90.30
2023-10-16T00:16:25.416Z,90.30
2023-10-16T00:18:54.637Z,90.20
2023-10-16T00:21:22.173Z,90.30
2023-10-16T00:23:49.054Z,90.30
2023-10-16T00:26:22.490Z,90.40
2023-10-16T00:28:55.791Z,90.40
2023-10-16T00:31:22.720Z,91.00
2023-10-16T00:33:51.983Z,91.00
2023-10-16T00:36:19.029Z,90.40
2023-10-16T00:38:52.896Z,90.90
2023-10-16T00:41:25.166Z,90.90
2023-10-16T00:43:52.834Z,91.00
2023-10-16T00:46:39.710Z,91.00
2023-10-16T00:49:07.780Z,90.90
2023-10-16T00:51:40.668Z,90.80
2023-10-16T00:54:28.413Z,90.80
2023-10-16T00:57:01.112Z,90.80
2023-10-16T00:59:29.617Z,90.90
2023-10-16T01:02:25.857Z,91.00
2023-10-16T01:04:53.733Z,90.90
2023-10-16T01:07:21.101Z,91.00
2023-10-16T01:09:48.647Z,91.00
2023-10-16T01:12:16.362Z,91.10
2023-10-16T01:14:43.312Z,91.00
2023-10-16T01:17:10.668Z,91.00
2023-10-16T01:19:38.227Z,90.90
2023-10-16T01:22:05.626Z,91.00
2023-10-16T01:24:32.403Z,91.00
2023-10-16T01:27:07.739Z,91.10
2023-10-16T01:29:38.546Z,91.20
2023-10-16T01:32:05.893Z,91.20
2023-10-16T01:34:36.003Z,91.20
2023-10-16T01:37:10.405Z,91.10
2023-10-16T01:39:49.868Z,91.10
2023-10-16T01:42:19.630Z,91.20
2023-10-16T01:44:47.792Z,91.20
2023-10-16T01:47:16.500Z,91.00
2023-10-16T01:49:44.412Z,91.10
2023-10-16T01:52:13.157Z,91.20
2023-10-16T01:54:44.041Z,91.20
2023-10-16T01:57:13.957Z,91.10
2023-10-16T01:59:46.088Z,91.10
2023-10-16T02:02:14.632Z,91.50
2023-10-16T02:04:42.412Z,91.30
2023-10-16T02:07:13.385Z,91.20
2023-10-16T02:09:41.002Z,91.20
2023-10-16T02:12:15.671Z,91.20
2023-10-16T02:14:43.598Z,91.10
2023-10-16T02:17:37.033Z,91.00
2023-10-16T02:20:12.345Z,90.90
2023-10-16T02:22:41.394Z,90.60
2023-10-16T02:25:18.285Z,90.90
2023-10-16T02:27:45.194Z,90.60
2023-10-16T02:30:24.774Z,90.90
2023-10-16T02:32:54.709Z,90.90
2023-10-16T02:35:22.586Z,90.90
2023-10-16T02:37:55.000Z,90.70
2023-10-16T02:40:21.982Z,91.00
2023-10-16T02:42:53.478Z,91.00
2023-10-16T02:45:26.153Z,90.90
2023-10-16T02:47:54.390Z,90.90
2023-10-16T02:50:21.868Z,91.00
2023-10-16T02:52:51.655Z,91.20
2023-10-16T02:55:19.595Z,91.00
2023-10-16T02:57:46.503Z,91.00
2023-10-16T03:00:21.671Z,90.90
2023-10-16T03:02:48.971Z,90.80
2023-10-16T03:05:23.251Z,90.90
2023-10-16T03:07:51.188Z,90.70
2023-10-16T03:10:18.348Z,90.70
2023-10-16T03:12:45.836Z,90.60
2023-10-16T03:15:22.038Z,90.70
2023-10-16T03:17:52.190Z,90.60
2023-10-16T03:20:23.871Z,90.70
2023-10-16T03:22:52.037Z,90.80
2023-10-16T03:25:37.664Z,90.80
2023-10-16T03:28:06.977Z,90.70
2023-10-16T03:30:34.149Z,90.70
2023-10-16T03:33:02.117Z,90.70
2023-10-16T03:35:31.208Z,90.60
2023-10-16T03:37:58.812Z,90.60
2023-10-16T03:40:29.108Z,90.70
2023-10-16T03:42:56.537Z,90.70
2023-10-16T03:45:23.847Z,90.60
2023-10-16T03:47:58.557Z,90.70
2023-10-16T03:50:27.393Z,90.80
2023-10-16T03:52:56.079Z,90.90
2023-10-16T03:55:27.038Z,91.30
2023-10-16T03:57:54.350Z,90.70
2023-10-16T04:00:27.517Z,90.80
2023-10-16T04:02:56.953Z,90.90
2023-10-16T04:05:34.982Z,90.80
2023-10-16T04:08:02.488Z,90.80
2023-10-16T04:10:30.121Z,90.80
2023-10-16T04:12:58.533Z,90.90
2023-10-16T04:15:44.214Z,90.80
2023-10-16T04:18:27.032Z,90.80
2023-10-16T04:21:09.821Z,90.80
2023-10-16T04:23:57.105Z,91.10
2023-10-16T04:26:28.977Z,91.30
2023-10-16T04:29:12.716Z,91.40
2023-10-16T04:31:46.498Z,91.10
2023-10-16T04:34:28.949Z,91.10
2023-10-16T04:37:16.745Z,91.40
2023-10-16T04:39:56.633Z,91.40
2023-10-16T04:42:46.010Z,91.30
2023-10-16T04:45:20.812Z,91.30
2023-10-16T04:47:55.241Z,91.10
2023-10-16T04:53:14.049Z,91.10
2023-10-16T04:55:47.419Z,91.10
2023-10-16T04:58:25.089Z,91.10
2023-10-16T05:01:01.622Z,91.10
2023-10-16T05:03:45.453Z,91.20
2023-10-16T05:06:18.646Z,91.20
2023-10-16T05:08:59.176Z,91.10
2023-10-16T05:11:45.395Z,91.10
2023-10-16T05:14:23.910Z,91.20
2023-10-16T05:17:12.408Z,91.30
2023-10-16T05:19:39.434Z,91.40
2023-10-16T05:22:26.234Z,91.40
2023-10-16T05:25:11.603Z,91.40
2023-10-16T05:27:57.063Z,91.40
2023-10-16T05:30:47.182Z,91.40
2023-10-16T05:33:32.815Z,91.40
2023-10-16T05:36:18.410Z,91.40
2023-10-16T05:39:04.018Z,91.40
2023-10-16T05:41:49.440Z,91.60
2023-10-16T05:44:35.029Z,91.50
2023-10-16T05:47:20.444Z,91.70
2023-10-16T05:50:05.979Z,91.50
2023-10-16T05:52:51.495Z,91.40
2023-10-16T05:55:37.093Z,91.30
2023-10-16T05:58:22.676Z,91.30
2023-10-16T06:01:08.153Z,91.30
2023-10-16T06:03:53.692Z,91.30
2023-10-16T06:06:39.199Z,91.30
2023-10-16T06:09:24.690Z,91.30
2023-10-16T06:12:10.240Z,91.40
2023-10-16T06:14:37.021Z,91.40
2023-10-16T06:17:14.628Z,91.50
2023-10-16T06:19:44.143Z,91.50
2023-10-16T06:22:12.684Z,91.70
2023-10-16T06:24:46.099Z,91.80
2023-10-16T06:27:19.846Z,91.90
2023-10-16T06:29:55.111Z,92.00
2023-10-16T06:32:26.677Z,92.10
2023-10-16T06:35:08.525Z,92.20
2023-10-16T06:37:36.725Z,92.30
2023-10-16T06:40:06.289Z,92.40
2023-10-16T06:42:33.271Z,92.30
2023-10-16T06:45:09.256Z,92.40
2023-10-16T06:47:37.280Z,92.50
2023-10-16T06:50:29.312Z,92.50
2023-10-16T06:53:00.302Z,92.80
2023-10-16T06:55:27.429Z,93.00
2023-10-16T06:57:54.443Z,92.90
2023-10-16T07:00:24.561Z,93.00
2023-10-16T07:02:57.674Z,93.00
2023-10-16T07:05:26.017Z,93.00
2023-10-16T07:07:58.450Z,93.20
2023-10-16T07:10:27.036Z,93.20
2023-10-16T07:13:00.311Z,93.30
2023-10-16T07:15:30.208Z,93.40
2023-10-16T07:17:58.219Z,93.40
2023-10-16T07:20:31.401Z,93.40
2023-10-16T07:23:00.452Z,93.50
2023-10-16T07:25:38.948Z,93.60
2023-10-16T07:28:10.485Z,93.60
2023-10-16T07:30:44.257Z,93.70
2023-10-16T07:33:15.565Z,93.70
2023-10-16T07:35:46.043Z,93.70
2023-10-16T07:38:23.340Z,93.70
2023-10-16T07:40:58.377Z,93.70
2023-10-16T07:43:29.323Z,93.70
2023-10-16T07:46:14.832Z,93.80
2023-10-16T07:49:10.765Z,93.70
2023-10-16T07:51:39.633Z,93.80
2023-10-16T07:54:08.460Z,93.90
2023-10-16T07:56:36.750Z,93.90
2023-10-16T07:59:19.668Z,93.90
2023-10-16T08:01:50.603Z,93.90
2023-10-16T08:04:40.756Z,93.80
2023-10-16T08:07:11.598Z,93.70
2023-10-16T08:09:38.482Z,93.70
2023-10-16T08:12:19.817Z,93.90
2023-10-16T08:14:48.054Z,93.90
2023-10-16T08:17:18.692Z,94.30
2023-10-16T08:19:47.019Z,94.10
2023-10-16T08:22:17.294Z,94.10
2023-10-16T08:24:59.180Z,94.10
2023-10-16T08:27:39.454Z,94.10
2023-10-16T08:30:19.246Z,94.10
2023-10-16T08:32:50.469Z,94.10
2023-10-16T08:35:23.908Z,94.10
2023-10-16T08:37:59.988Z,94.00
2023-10-16T08:40:36.810Z,93.80
2023-10-16T08:43:09.460Z,93.50
2023-10-16T08:45:40.799Z,93.40
2023-10-16T08:48:09.202Z,92.80
2023-10-16T08:50:44.923Z,92.60
2023-10-16T08:53:33.909Z,92.50
2023-10-16T08:56:09.913Z,92.60
2023-10-16T08:58:41.939Z,92.50
2023-10-16T09:01:09.900Z,92.30
2023-10-16T09:03:45.596Z,92.20
2023-10-16T09:06:20.152Z,92.10
2023-10-16T09:08:46.906Z,92.00
2023-10-16T09:11:17.720Z,91.90
2023-10-16T09:13:50.502Z,91.80
2023-10-16T09:16:22.110Z,91.60
2023-10-16T09:18:49.291Z,91.30
2023-10-16T09:21:24.253Z,91.20
2023-10-16T09:23:59.528Z,91.20
2023-10-16T09:26:39.457Z,90.80
2023-10-16T09:29:14.490Z,90.90
2023-10-16T09:31:48.428Z,90.90
2023-10-16T09:34:19.974Z,90.40
2023-10-16T09:37:10.927Z,90.30
2023-10-16T09:39:50.661Z,90.00
2023-10-16T09:42:25.689Z,89.90
2023-10-16T09:45:08.495Z,89.10
2023-10-16T09:47:39.709Z,88.60
2023-10-16T09:50:18.174Z,89.20
2023-10-16T09:52:47.115Z,88.60
2023-10-16T09:55:14.298Z,87.80
2023-10-16T09:57:54.229Z,87.30
2023-10-16T10:00:34.479Z,86.60
2023-10-16T10:03:07.494Z,86.40
2023-10-16T10:05:42.905Z,85.40
2023-10-16T10:08:18.837Z,85.30
2023-10-16T10:11:22.291Z,85.00
2023-10-16T10:14:12.631Z,85.80
2023-10-16T10:16:46.744Z,84.70
2023-10-16T10:19:32.725Z,84.10
2023-10-16T10:22:18.554Z,82.80
2023-10-16T10:24:52.523Z,82.60
2023-10-16T10:27:19.529Z,82.50
2023-10-16T10:29:49.856Z,82.10
2023-10-16T10:32:17.027Z,80.70
2023-10-16T10:34:45.458Z,80.20
2023-10-16T10:37:46.301Z,78.70
2023-10-16T10:40:23.286Z,78.50
2023-10-16T10:42:59.073Z,79.60
2023-10-16T10:45:36.912Z,79.80
2023-10-16T10:48:08.083Z,78.30
2023-10-16T10:50:35.446Z,78.20
2023-10-16T10:53:07.371Z,78.70
2023-10-16T10:55:34.165Z,78.40
2023-10-16T10:58:03.179Z,77.20
2023-10-16T11:00:29.969Z,77.00
2023-10-16T11:03:02.963Z,76.20
2023-10-16T11:05:32.373Z,75.80
2023-10-16T11:08:10.556Z,75.10
2023-10-16T11:10:42.866Z,74.50
2023-10-16T11:13:10.839Z,73.30
2023-10-16T11:15:38.192Z,73.00
2023-10-16T11:18:12.689Z,72.40
2023-10-16T11:20:40.920Z,71.80
2023-10-16T11:23:18.017Z,71.20
2023-10-16T11:25:47.387Z,70.80
2023-10-16T11:28:21.427Z,70.40
2023-10-16T11:30:51.146Z,69.90
2023-10-16T11:33:57.668Z,68.30
2023-10-16T11:36:24.863Z,66.10
2023-10-16T11:38:54.434Z,62.70
2023-10-16T11:41:22.112Z,62.50
2023-10-16T11:43:53.937Z,62.10
2023-10-16T11:46:29.752Z,62.20
2023-10-16T11:49:33.472Z,60.60
2023-10-16T11:52:09.843Z,60.50
2023-10-16T11:54:41.826Z,59.50
2023-10-16T11:57:14.249Z,58.60
2023-10-16T11:59:41.839Z,58.40
2023-10-16T12:02:15.878Z,58.00
2023-10-16T12:04:43.930Z,57.90
2023-10-16T12:07:15.602Z,58.10
2023-10-16T12:09:49.650Z,58.30
2023-10-16T12:12:25.781Z,58.60
2023-10-16T12:14:54.357Z,57.80
2023-10-16T12:17:21.906Z,57.60
2023-10-16T12:19:49.504Z,57.80
2023-10-16T12:22:22.565Z,57.90
2023-10-16T12:24:50.444Z,58.10
2023-10-16T12:27:17.598Z,58.50
2023-10-16T12:29:47.860Z,58.40
2023-10-16T12:32:15.050Z,57.50
2023-10-16T12:34:42.672Z,58.00
2023-10-16T12:37:10.895Z,58.10
2023-10-16T12:39:47.692Z,58.00
2023-10-16T12:42:15.486Z,57.00
2023-10-16T12:44:42.722Z,57.20
2023-10-16T12:47:09.759Z,57.30
2023-10-16T12:49:36.674Z,57.20
2023-10-16T12:52:03.652Z,56.90
2023-10-16T12:54:30.457Z,57.10
2023-10-16T12:56:58.826Z,56.80
2023-10-16T12:59:28.575Z,57.40
2023-10-16T13:01:55.423Z,56.70
2023-10-16T13:04:26.068Z,56.80
2023-10-16T13:06:53.182Z,57.50
2023-10-16T13:09:20.981Z,57.20
2023-10-16T13:11:47.945Z,57.30
2023-10-16T13:14:14.852Z,57.00
2023-10-16T13:16:42.659Z,56.90
2023-10-16T13:19:12.348Z,56.60
2023-10-16T13:21:39.533Z,56.50
2023-10-16T13:24:12.281Z,55.90
2023-10-16T13:26:42.433Z,55.50
2023-10-16T13:29:11.877Z,55.70
2023-10-16T13:31:43.019Z,55.90
2023-10-16T13:34:14.721Z,56.00
2023-10-16T13:36:57.876Z,56.00
2023-10-16T13:39:27.951Z,55.60
2023-10-16T13:41:56.909Z,56.10
2023-10-16T13:44:26.215Z,56.50
2023-10-16T13:46:54.643Z,57.10
2023-10-16T13:49:25.125Z,57.50
2023-10-16T13:51:55.017Z,57.10
2023-10-16T13:54:22.048Z,57.10
2023-10-16T13:56:49.587Z,57.00
2023-10-16T13:59:19.378Z,56.90
2023-10-16T14:01:47.450Z,56.60
2023-10-16T14:04:15.985Z,57.00
2023-10-16T14:06:45.333Z,57.30
2023-10-16T14:09:12.656Z,57.20
2023-10-16T14:11:48.836Z,56.60
2023-10-16T14:14:20.180Z,56.60
2023-10-16T14:16:52.340Z,56.70
2023-10-16T14:19:23.688Z,56.80
2023-10-16T14:21:53.994Z,56.60
2023-10-16T14:24:23.495Z,56.60
2023-10-16T14:26:51.730Z,56.90
2023-10-16T14:29:21.255Z,56.90
2023-10-16T14:31:52.909Z,57.20
2023-10-16T14:34:26.908Z,57.40
2023-10-16T14:36:55.561Z,57.80
2023-10-16T14:39:30.004Z,57.40
2023-10-16T14:41:58.589Z,56.50
2023-10-16T14:44:25.824Z,57.00
2023-10-16T14:46:52.874Z,57.30
2023-10-16T14:49:21.055Z,57.30
2023-10-16T14:51:48.167Z,57.50
2023-10-16T14:54:15.857Z,57.60
2023-10-16T14:56:45.485Z,58.20
2023-10-16T14:59:23.807Z,59.00
2023-10-16T15:01:52.105Z,59.20
2023-10-16T15:04:21.259Z,59.70
2023-10-16T15:06:49.150Z,59.70
2023-10-16T15:09:18.688Z,59.40
2023-10-16T15:11:50.792Z,59.20
2023-10-16T15:14:17.929Z,59.60
2023-10-16T15:16:45.038Z,60.00
2023-10-16T15:19:12.486Z,60.60
2023-10-16T15:21:41.282Z,60.90
2023-10-16T15:24:12.316Z,60.70
2023-10-16T15:26:39.270Z,60.90
2023-10-16T15:29:06.224Z,61.10
2023-10-16T15:31:33.596Z,61.30
2023-10-16T15:34:00.887Z,61.30
2023-10-16T15:36:27.897Z,60.60
2023-10-16T15:38:55.027Z,60.70
2023-10-16T15:41:24.199Z,60.50
2023-10-16T15:43:54.482Z,60.70
2023-10-16T15:46:32.253Z,61.10
2023-10-16T15:49:00.533Z,61.20
2023-10-16T15:51:31.767Z,61.30
2023-10-16T15:53:59.850Z,60.70
2023-10-16T15:56:28.015Z,60.80
2023-10-16T15:58:56.962Z,60.60
2023-10-16T16:01:26.784Z,61.10
2023-10-16T16:04:01.437Z,61.40
2023-10-16T16:06:32.389Z,60.90
2023-10-16T16:09:01.160Z,61.80
2023-10-16T16:11:29.628Z,62.00
2023-10-16T16:13:57.896Z,62.70
2023-10-16T16:16:24.847Z,62.90
2023-10-16T16:18:51.817Z,63.20
2023-10-16T16:21:18.690Z,63.30
2023-10-16T16:23:45.429Z,63.60
2023-10-16T16:26:12.321Z,63.60
2023-10-16T16:28:40.427Z,63.90
2023-10-16T16:31:08.705Z,63.80
2023-10-16T16:33:35.829Z,63.50
2023-10-16T16:36:02.903Z,63.40
2023-10-16T16:38:29.699Z,63.60
2023-10-16T16:40:56.524Z,63.90
2023-10-16T16:43:23.508Z,64.30
2023-10-16T16:45:51.417Z,64.20
2023-10-16T16:48:18.293Z,64.40
2023-10-16T16:50:46.952Z,65.20
2023-10-16T16:53:13.833Z,64.60
2023-10-16T16:55:40.681Z,65.10
2023-10-16T16:58:07.514Z,65.60
2023-10-16T17:00:34.582Z,65.90
2023-10-16T17:03:01.783Z,66.00
2023-10-16T17:05:28.669Z,66.10
2023-10-16T17:07:57.686Z,66.30
2023-10-16T17:10:29.331Z,66.90
2023-10-16T17:12:56.520Z,66.90
2023-10-16T17:15:27.293Z,67.10
2023-10-16T17:17:55.323Z,67.20
2023-10-16T17:20:22.985Z,67.10
2023-10-16T17:25:23.146Z,67.80
2023-10-16T17:27:50.633Z,68.40
2023-10-16T17:30:18.565Z,68.30
2023-10-16T17:32:45.958Z,68.60
2023-10-16T17:35:12.979Z,68.90
2023-10-16T17:37:41.228Z,68.60
2023-10-16T17:40:11.240Z,68.90
2023-10-16T17:42:38.416Z,68.80
2023-10-16T17:45:06.634Z,68.60
2023-10-16T17:47:35.100Z,68.80
2023-10-16T17:50:02.726Z,69.30
2023-10-16T17:52:35.263Z,69.20
2023-10-16T17:55:04.677Z,69.50
2023-10-16T17:57:32.720Z,69.80
2023-10-16T17:59:59.621Z,70.30
2023-10-16T18:02:26.794Z,70.40
2023-10-16T18:04:54.053Z,70.40
2023-10-16T18:07:21.069Z,70.40
2023-10-16T18:09:47.890Z,71.10
2023-10-16T18:12:21.080Z,71.70
2023-10-16T18:14:48.773Z,72.10
2023-10-16T18:17:18.366Z,72.40
2023-10-16T18:19:47.441Z,72.80
2023-10-16T18:22:15.692Z,73.10
2023-10-16T18:24:43.214Z,72.70
2023-10-16T18:27:14.956Z,73.00
2023-10-16T18:29:44.578Z,73.30
2023-10-16T18:32:11.629Z,73.80
2023-10-16T18:34:39.426Z,74.00
2023-10-16T18:37:06.539Z,74.10
2023-10-16T18:39:39.672Z,74.20
2023-10-16T18:42:11.152Z,73.90
2023-10-16T18:44:43.191Z,73.80
2023-10-16T18:47:13.945Z,73.80
2023-10-16T18:49:41.755Z,74.60
2023-10-16T18:52:10.178Z,74.70
2023-10-16T18:54:37.608Z,75.10
2023-10-16T18:57:04.812Z,75.70
2023-10-16T18:59:32.807Z,76.20
2023-10-16T19:02:00.459Z,76.20
2023-10-16T19:04:27.848Z,76.40
2023-10-16T19:06:54.915Z,76.30
2023-10-16T19:09:22.056Z,76.70
2023-10-16T19:11:49.083Z,76.60
2023-10-16T19:14:16.039Z,76.60
2023-10-16T19:16:43.043Z,76.50
2023-10-16T19:19:10.237Z,76.60
2023-10-16T19:21:39.404Z,76.90
2023-10-16T19:24:09.824Z,77.10
2023-10-16T19:26:38.411Z,77.40
2023-10-16T19:29:05.621Z,77.70
2023-10-16T19:31:33.495Z,78.10
2023-10-16T19:34:01.096Z,77.90
2023-10-16T19:36:30.381Z,78.20
2023-10-16T19:38:58.804Z,78.40
2023-10-16T19:41:34.585Z,78.40
2023-10-16T19:44:02.001Z,78.50
2023-10-16T19:46:32.228Z,78.60
2023-10-16T19:48:59.168Z,78.90
2023-10-16T19:51:26.066Z,79.10
2023-10-16T19:53:59.112Z,80.20
2023-10-16T19:56:26.318Z,78.90
2023-10-16T19:58:53.848Z,78.80
2023-10-16T20:01:23.791Z,78.90
2023-10-16T20:03:51.279Z,78.90
2023-10-16T20:06:19.925Z,78.60
2023-10-16T20:08:50.548Z,78.20
2023-10-16T20:11:18.200Z,78.30
2023-10-16T20:13:45.146Z,78.20
2023-10-16T20:16:15.063Z,78.40
2023-10-16T20:18:43.052Z,79.00
2023-10-16T20:21:18.867Z,78.30
2023-10-16T20:23:47.670Z,78.70
2023-10-16T20:26:19.929Z,78.90
2023-10-16T20:28:50.910Z,78.70
2023-10-16T20:31:19.782Z,79.10
2023-10-16T20:33:49.964Z,79.20
2023-10-16T20:36:18.402Z,79.50
2023-10-16T20:38:45.956Z,79.60
2023-10-16T20:41:14.077Z,79.90
2023-10-16T20:43:41.286Z,80.10
2023-10-16T20:46:08.242Z,80.00
2023-10-16T20:48:37.164Z,80.10
2023-10-16T20:51:08.431Z,80.30
2023-10-16T20:53:35.333Z,80.70
2023-10-16T20:56:02.160Z,81.20
2023-10-16T20:58:29.034Z,81.20
2023-10-16T21:00:56.847Z,81.40
2023-10-16T21:03:24.897Z,81.30
2023-10-16T21:05:52.225Z,81.70
2023-10-16T21:08:20.352Z,81.60
2023-10-16T21:10:47.754Z,81.80
2023-10-16T21:13:15.021Z,81.80
2023-10-16T21:15:46.064Z,81.80
2023-10-16T21:18:13.164Z,82.30
2023-10-16T21:20:40.391Z,82.30
2023-10-16T21:23:07.223Z,82.40
2023-10-16T21:25:34.555Z,82.50
2023-10-16T21:28:02.528Z,82.70
2023-10-16T21:30:29.810Z,83.00
2023-10-16T21:32:57.807Z,82.80
2023-10-16T21:35:28.003Z,82.70
2023-10-16T21:37:54.955Z,82.60
2023-10-16T21:40:24.862Z,82.60
2023-10-16T21:42:52.923Z,82.80
2023-10-16T21:45:20.488Z,82.90
2023-10-16T21:47:47.591Z,83.10
2023-10-16T21:50:14.662Z,83.20
2023-10-16T21:52:41.515Z,83.30
2023-10-16T21:55:08.839Z,83.40
2023-10-16T21:57:36.138Z,83.50
2023-10-16T22:00:13.570Z,83.40
2023-10-16T22:02:41.638Z,83.50
2023-10-16T22:05:13.057Z,83.60
2023-10-16T22:07:40.598Z,83.80
2023-10-16T22:10:11.096Z,83.70
2023-10-16T22:12:38.674Z,84.00
2023-10-16T22:15:11.356Z,84.00
2023-10-16T22:17:38.985Z,84.00
2023-10-16T22:20:12.145Z,84.10
2023-10-16T22:22:39.055Z,84.10
2023-10-16T22:25:06.115Z,84.10
2023-10-16T22:27:33.726Z,84.00
2023-10-16T22:30:01.357Z,83.70
2023-10-16T22:32:28.438Z,83.90
2023-10-16T22:34:55.330Z,83.70
2023-10-16T22:37:22.217Z,83.80
2023-10-16T22:39:49.091Z,84.00
2023-10-16T22:42:16.974Z,84.10
2023-10-16T22:44:43.836Z,84.30
2023-10-16T22:47:11.064Z,84.00
2023-10-16T22:49:37.988Z,84.40
2023-10-16T22:52:05.010Z,84.50
2023-10-16T22:54:32.780Z,84.70
2023-10-16T22:57:01.054Z,84.80
2023-10-16T22:59:27.900Z,84.90
2023-10-16T23:01:54.847Z,84.90
2023-10-16T23:04:21.734Z,84.70
2023-10-16T23:06:51.438Z,84.90
2023-10-16T23:09:30.484Z,84.90
2023-10-16T23:12:24.202Z,84.90
2023-10-16T23:14:51.358Z,84.60
2023-10-16T23:17:18.671Z,84.80
2023-10-16T23:19:46.995Z,84.80
2023-10-16T23:22:13.800Z,84.70
2023-10-16T23:24:40.609Z,85.10
2023-10-16T23:27:08.190Z,85.00
2023-10-16T23:29:35.167Z,85.20
2023-10-16T23:32:04.363Z,85.40
2023-10-16T23:34:31.918Z,85.50
2023-10-16T23:37:04.954Z,85.80
2023-10-16T23:39:31.977Z,85.80
2023-10-16T23:42:14.051Z,85.70
2023-10-16T23:44:42.260Z,85.90
2023-10-16T23:47:18.007Z,85.90
2023-10-16T23:49:48.557Z,86.60
2023-10-16T23:52:24.747Z,86.50
2023-10-16T23:55:07.916Z,86.60
2023-10-16T23:57:49.651Z,87.20
